sensor_id;sensor_type;location;lat;lon;timestamp;P1;durP1;ratioP1;P2;durP2;ratioP2
70138;SDS011;57507;43.056;0.150;2024-02-21T00:01:50;0.65;;;0.50;;
70138;SDS011;57507;43.056;0.150;2024-02-21T00:04:16;0.80;;;0.50;;
70138;SDS011;57507;43.056;0.150;2024-02-21T00:06:42;1.38;;;0.70;;
70138;SDS011;57507;43.056;0.150;2024-02-21T00:09:08;1.02;;;0.60;;
70138;SDS011;57507;43.056;0.150;2024-02-21T00:11:34;0.52;;;0.50;;
70138;SDS011;57507;43.056;0.150;2024-02-21T00:14:00;1.77;;;0.45;;
70138;SDS011;57507;43.056;0.150;2024-02-21T00:16:26;0.98;;;0.43;;
70138;SDS011;57507;43.056;0.150;2024-02-21T00:18:52;0.80;;;0.50;;
70138;SDS011;57507;43.056;0.150;2024-02-21T00:21:18;0.63;;;0.47;;
70138;SDS011;57507;43.056;0.150;2024-02-21T00:23:44;1.20;;;0.40;;
70138;SDS011;57507;43.056;0.150;2024-02-21T00:26:11;0.63;;;0.35;;
70138;SDS011;57507;43.056;0.150;2024-02-21T00:28:38;0.95;;;0.50;;
70138;SDS011;57507;43.056;0.150;2024-02-21T00:31:04;0.40;;;0.40;;
70138;SDS011;57507;43.056;0.150;2024-02-21T00:33:30;0.60;;;0.45;;
70138;SDS011;57507;43.056;0.150;2024-02-21T00:35:56;0.73;;;0.40;;
70138;SDS011;57507;43.056;0.150;2024-02-21T00:38:22;0.50;;;0.45;;
70138;SDS011;57507;43.056;0.150;2024-02-21T00:40:48;0.70;;;0.47;;
70138;SDS011;57507;43.056;0.150;2024-02-21T00:43:14;0.80;;;0.40;;
70138;SDS011;57507;43.056;0.150;2024-02-21T00:45:40;0.57;;;0.47;;
70138;SDS011;57507;43.056;0.150;2024-02-21T00:48:07;0.80;;;0.60;;
70138;SDS011;57507;43.056;0.150;2024-02-21T00:50:33;1.13;;;0.45;;
70138;SDS011;57507;43.056;0.150;2024-02-21T00:52:59;1.33;;;0.50;;
70138;SDS011;57507;43.056;0.150;2024-02-21T00:55:25;1.10;;;0.50;;
70138;SDS011;57507;43.056;0.150;2024-02-21T00:57:51;0.52;;;0.40;;
70138;SDS011;57507;43.056;0.150;2024-02-21T01:00:17;1.30;;;0.40;;
70138;SDS011;57507;43.056;0.150;2024-02-21T01:02:43;1.40;;;0.68;;
70138;SDS011;57507;43.056;0.150;2024-02-21T01:05:09;0.38;;;0.38;;
70138;SDS011;57507;43.056;0.150;2024-02-21T01:07:35;1.20;;;0.30;;
70138;SDS011;57507;43.056;0.150;2024-02-21T01:10:01;0.77;;;0.30;;
70138;SDS011;57507;43.056;0.150;2024-02-21T01:12:27;0.93;;;0.40;;
70138;SDS011;57507;43.056;0.150;2024-02-21T01:14:53;0.32;;;0.28;;
70138;SDS011;57507;43.056;0.150;2024-02-21T01:17:19;0.98;;;0.47;;
70138;SDS011;57507;43.056;0.150;2024-02-21T01:19:46;0.47;;;0.30;;
70138;SDS011;57507;43.056;0.150;2024-02-21T01:22:12;0.45;;;0.40;;
70138;SDS011;57507;43.056;0.150;2024-02-21T01:24:38;0.55;;;0.40;;
70138;SDS011;57507;43.056;0.150;2024-02-21T01:27:04;0.75;;;0.25;;
70138;SDS011;57507;43.056;0.150;2024-02-21T01:29:30;0.40;;;0.30;;
70138;SDS011;57507;43.056;0.150;2024-02-21T01:31:56;0.68;;;0.30;;
70138;SDS011;57507;43.056;0.150;2024-02-21T01:34:22;0.30;;;0.30;;
70138;SDS011;57507;43.056;0.150;2024-02-21T01:36:48;0.28;;;0.22;;
70138;SDS011;57507;43.056;0.150;2024-02-21T01:39:14;0.40;;;0.40;;
70138;SDS011;57507;43.056;0.150;2024-02-21T01:41:40;0.25;;;0.20;;
70138;SDS011;57507;43.056;0.150;2024-02-21T01:44:06;1.35;;;0.38;;
70138;SDS011;57507;43.056;0.150;2024-02-21T01:46:32;0.47;;;0.40;;
70138;SDS011;57507;43.056;0.150;2024-02-21T01:48:59;0.70;;;0.30;;
70138;SDS011;57507;43.056;0.150;2024-02-21T01:51:25;0.40;;;0.20;;
70138;SDS011;57507;43.056;0.150;2024-02-21T01:53:51;1.02;;;0.40;;
70138;SDS011;57507;43.056;0.150;2024-02-21T01:56:18;0.52;;;0.30;;
70138;SDS011;57507;43.056;0.150;2024-02-21T01:58:44;0.95;;;0.30;;
70138;SDS011;57507;43.056;0.150;2024-02-21T02:01:10;0.35;;;0.30;;
70138;SDS011;57507;43.056;0.150;2024-02-21T02:03:36;0.20;;;0.20;;
70138;SDS011;57507;43.056;0.150;2024-02-21T02:06:04;0.20;;;0.20;;
70138;SDS011;57507;43.056;0.150;2024-02-21T02:08:30;0.40;;;0.25;;
70138;SDS011;57507;43.056;0.150;2024-02-21T02:10:57;0.93;;;0.30;;
70138;SDS011;57507;43.056;0.150;2024-02-21T02:13:23;0.40;;;0.30;;
70138;SDS011;57507;43.056;0.150;2024-02-21T02:15:49;1.77;;;0.30;;
70138;SDS011;57507;43.056;0.150;2024-02-21T02:18:16;0.40;;;0.20;;
70138;SDS011;57507;43.056;0.150;2024-02-21T02:20:43;0.70;;;0.30;;
70138;SDS011;57507;43.056;0.150;2024-02-21T02:23:10;0.35;;;0.20;;
70138;SDS011;57507;43.056;0.150;2024-02-21T02:25:37;0.28;;;0.28;;
70138;SDS011;57507;43.056;0.150;2024-02-21T02:28:04;0.20;;;0.20;;
70138;SDS011;57507;43.056;0.150;2024-02-21T02:30:33;0.40;;;0.25;;
70138;SDS011;57507;43.056;0.150;2024-02-21T02:33:01;0.47;;;0.20;;
70138;SDS011;57507;43.056;0.150;2024-02-21T02:35:27;1.42;;;0.40;;
70138;SDS011;57507;43.056;0.150;2024-02-21T02:37:53;0.90;;;0.25;;
70138;SDS011;57507;43.056;0.150;2024-02-21T02:40:19;0.32;;;0.20;;
70138;SDS011;57507;43.056;0.150;2024-02-21T02:42:45;1.10;;;0.30;;
70138;SDS011;57507;43.056;0.150;2024-02-21T02:45:11;0.15;;;0.15;;
70138;SDS011;57507;43.056;0.150;2024-02-21T02:47:39;0.38;;;0.30;;
70138;SDS011;57507;43.056;0.150;2024-02-21T02:50:06;0.40;;;0.30;;
70138;SDS011;57507;43.056;0.150;2024-02-21T02:52:32;0.20;;;0.20;;
70138;SDS011;57507;43.056;0.150;2024-02-21T02:54:58;0.85;;;0.40;;
70138;SDS011;57507;43.056;0.150;2024-02-21T02:57:24;0.20;;;0.20;;
70138;SDS011;57507;43.056;0.150;2024-02-21T02:59:50;0.75;;;0.30;;
70138;SDS011;57507;43.056;0.150;2024-02-21T03:02:17;1.75;;;0.20;;
70138;SDS011;57507;43.056;0.150;2024-02-21T03:04:43;0.30;;;0.30;;
70138;SDS011;57507;43.056;0.150;2024-02-21T03:07:09;0.77;;;0.25;;
70138;SDS011;57507;43.056;0.150;2024-02-21T03:09:36;0.65;;;0.20;;
70138;SDS011;57507;43.056;0.150;2024-02-21T03:12:03;0.40;;;0.30;;
70138;SDS011;57507;43.056;0.150;2024-02-21T03:14:29;0.30;;;0.30;;
70138;SDS011;57507;43.056;0.150;2024-02-21T03:16:55;0.50;;;0.30;;
70138;SDS011;57507;43.056;0.150;2024-02-21T03:19:21;1.27;;;0.38;;
70138;SDS011;57507;43.056;0.150;2024-02-21T03:21:47;1.30;;;0.20;;
70138;SDS011;57507;43.056;0.150;2024-02-21T03:24:14;0.40;;;0.20;;
70138;SDS011;57507;43.056;0.150;2024-02-21T03:26:40;0.22;;;0.13;;
70138;SDS011;57507;43.056;0.150;2024-02-21T03:29:06;0.17;;;0.17;;
70138;SDS011;57507;43.056;0.150;2024-02-21T03:31:33;0.38;;;0.17;;
70138;SDS011;57507;43.056;0.150;2024-02-21T03:34:00;0.30;;;0.30;;
70138;SDS011;57507;43.056;0.150;2024-02-21T03:36:26;1.52;;;0.20;;
70138;SDS011;57507;43.056;0.150;2024-02-21T03:38:53;0.60;;;0.30;;
70138;SDS011;57507;43.056;0.150;2024-02-21T03:41:20;0.30;;;0.30;;
70138;SDS011;57507;43.056;0.150;2024-02-21T03:43:46;0.20;;;0.15;;
70138;SDS011;57507;43.056;0.150;2024-02-21T03:46:12;1.15;;;0.30;;
70138;SDS011;57507;43.056;0.150;2024-02-21T03:48:38;1.10;;;0.20;;
70138;SDS011;57507;43.056;0.150;2024-02-21T03:51:04;0.30;;;0.20;;
70138;SDS011;57507;43.056;0.150;2024-02-21T03:53:30;0.88;;;0.30;;
70138;SDS011;57507;43.056;0.150;2024-02-21T03:55:56;0.28;;;0.20;;
70138;SDS011;57507;43.056;0.150;2024-02-21T03:58:27;2.50;;;0.20;;
70138;SDS011;57507;43.056;0.150;2024-02-21T04:00:53;0.20;;;0.10;;
70138;SDS011;57507;43.056;0.150;2024-02-21T04:03:19;0.57;;;0.20;;
70138;SDS011;57507;43.056;0.150;2024-02-21T04:05:45;0.32;;;0.20;;
70138;SDS011;57507;43.056;0.150;2024-02-21T04:08:12;0.22;;;0.20;;
70138;SDS011;57507;43.056;0.150;2024-02-21T04:10:38;0.52;;;0.20;;
70138;SDS011;57507;43.056;0.150;2024-02-21T04:13:04;0.17;;;0.17;;
70138;SDS011;57507;43.056;0.150;2024-02-21T04:15:30;0.63;;;0.30;;
70138;SDS011;57507;43.056;0.150;2024-02-21T04:17:56;0.20;;;0.20;;
70138;SDS011;57507;43.056;0.150;2024-02-21T04:20:22;0.82;;;0.20;;
70138;SDS011;57507;43.056;0.150;2024-02-21T04:22:49;1.58;;;0.20;;
70138;SDS011;57507;43.056;0.150;2024-02-21T04:25:15;0.17;;;0.17;;
70138;SDS011;57507;43.056;0.150;2024-02-21T04:27:41;0.63;;;0.20;;
70138;SDS011;57507;43.056;0.150;2024-02-21T04:30:07;0.20;;;0.20;;
70138;SDS011;57507;43.056;0.150;2024-02-21T04:32:34;0.20;;;0.20;;
70138;SDS011;57507;43.056;0.150;2024-02-21T04:35:00;0.55;;;0.30;;
70138;SDS011;57507;43.056;0.150;2024-02-21T04:37:27;1.40;;;0.20;;
70138;SDS011;57507;43.056;0.150;2024-02-21T04:39:53;0.20;;;0.20;;
70138;SDS011;57507;43.056;0.150;2024-02-21T04:42:19;0.45;;;0.22;;
70138;SDS011;57507;43.056;0.150;2024-02-21T04:44:45;0.17;;;0.13;;
70138;SDS011;57507;43.056;0.150;2024-02-21T04:47:11;0.30;;;0.20;;
70138;SDS011;57507;43.056;0.150;2024-02-21T04:49:38;0.65;;;0.20;;
70138;SDS011;57507;43.056;0.150;2024-02-21T04:52:04;1.00;;;0.20;;
70138;SDS011;57507;43.056;0.150;2024-02-21T04:54:30;0.20;;;0.20;;
70138;SDS011;57507;43.056;0.150;2024-02-21T04:56:56;1.48;;;0.30;;
70138;SDS011;57507;43.056;0.150;2024-02-21T04:59:22;0.10;;;0.10;;
70138;SDS011;57507;43.056;0.150;2024-02-21T05:01:48;1.08;;;0.20;;
70138;SDS011;57507;43.056;0.150;2024-02-21T05:04:14;0.20;;;0.20;;
70138;SDS011;57507;43.056;0.150;2024-02-21T05:06:40;0.15;;;0.15;;
70138;SDS011;57507;43.056;0.150;2024-02-21T05:09:07;0.40;;;0.20;;
70138;SDS011;57507;43.056;0.150;2024-02-21T05:11:36;0.22;;;0.20;;
70138;SDS011;57507;43.056;0.150;2024-02-21T05:14:03;0.10;;;0.10;;
70138;SDS011;57507;43.056;0.150;2024-02-21T05:16:29;0.20;;;0.20;;
70138;SDS011;57507;43.056;0.150;2024-02-21T05:18:55;0.60;;;0.30;;
70138;SDS011;57507;43.056;0.150;2024-02-21T05:21:25;0.20;;;0.20;;
70138;SDS011;57507;43.056;0.150;2024-02-21T05:23:53;1.13;;;0.30;;
70138;SDS011;57507;43.056;0.150;2024-02-21T05:26:24;0.22;;;0.20;;
70138;SDS011;57507;43.056;0.150;2024-02-21T05:28:51;0.10;;;0.10;;
70138;SDS011;57507;43.056;0.150;2024-02-21T05:31:17;0.20;;;0.20;;
70138;SDS011;57507;43.056;0.150;2024-02-21T05:33:44;0.28;;;0.20;;
70138;SDS011;57507;43.056;0.150;2024-02-21T05:36:10;0.93;;;0.25;;
70138;SDS011;57507;43.056;0.150;2024-02-21T05:38:36;0.35;;;0.20;;
70138;SDS011;57507;43.056;0.150;2024-02-21T05:41:02;0.20;;;0.20;;
70138;SDS011;57507;43.056;0.150;2024-02-21T05:43:28;0.10;;;0.10;;
70138;SDS011;57507;43.056;0.150;2024-02-21T05:45:54;0.65;;;0.32;;
70138;SDS011;57507;43.056;0.150;2024-02-21T05:48:21;0.35;;;0.20;;
70138;SDS011;57507;43.056;0.150;2024-02-21T05:50:47;0.43;;;0.20;;
70138;SDS011;57507;43.056;0.150;2024-02-21T05:53:14;0.80;;;0.35;;
70138;SDS011;57507;43.056;0.150;2024-02-21T05:55:40;0.93;;;0.40;;
70138;SDS011;57507;43.056;0.150;2024-02-21T05:58:06;0.40;;;0.22;;
70138;SDS011;57507;43.056;0.150;2024-02-21T06:00:35;0.55;;;0.38;;
70138;SDS011;57507;43.056;0.150;2024-02-21T06:03:01;0.20;;;0.20;;
70138;SDS011;57507;43.056;0.150;2024-02-21T06:05:27;0.60;;;0.30;;
70138;SDS011;57507;43.056;0.150;2024-02-21T06:07:53;0.32;;;0.30;;
70138;SDS011;57507;43.056;0.150;2024-02-21T06:10:19;0.30;;;0.20;;
70138;SDS011;57507;43.056;0.150;2024-02-21T06:12:45;0.30;;;0.30;;
70138;SDS011;57507;43.056;0.150;2024-02-21T06:15:11;0.75;;;0.30;;
70138;SDS011;57507;43.056;0.150;2024-02-21T06:17:37;0.52;;;0.28;;
70138;SDS011;57507;43.056;0.150;2024-02-21T06:20:03;0.75;;;0.30;;
70138;SDS011;57507;43.056;0.150;2024-02-21T06:22:30;0.30;;;0.30;;
70138;SDS011;57507;43.056;0.150;2024-02-21T06:24:56;0.40;;;0.38;;
70138;SDS011;57507;43.056;0.150;2024-02-21T06:27:22;0.30;;;0.30;;
70138;SDS011;57507;43.056;0.150;2024-02-21T06:29:49;0.20;;;0.20;;
70138;SDS011;57507;43.056;0.150;2024-02-21T06:32:15;0.43;;;0.40;;
70138;SDS011;57507;43.056;0.150;2024-02-21T06:34:41;0.73;;;0.30;;
70138;SDS011;57507;43.056;0.150;2024-02-21T06:37:07;0.82;;;0.25;;
70138;SDS011;57507;43.056;0.150;2024-02-21T06:39:34;0.25;;;0.25;;
70138;SDS011;57507;43.056;0.150;2024-02-21T06:42:02;0.30;;;0.30;;
70138;SDS011;57507;43.056;0.150;2024-02-21T06:44:29;0.40;;;0.20;;
70138;SDS011;57507;43.056;0.150;2024-02-21T06:46:56;0.60;;;0.35;;
70138;SDS011;57507;43.056;0.150;2024-02-21T06:49:24;0.35;;;0.28;;
70138;SDS011;57507;43.056;0.150;2024-02-21T06:51:50;0.55;;;0.40;;
70138;SDS011;57507;43.056;0.150;2024-02-21T06:54:16;0.30;;;0.30;;
70138;SDS011;57507;43.056;0.150;2024-02-21T06:56:42;0.20;;;0.15;;
70138;SDS011;57507;43.056;0.150;2024-02-21T06:59:08;0.47;;;0.15;;
70138;SDS011;57507;43.056;0.150;2024-02-21T07:01:34;0.30;;;0.20;;
70138;SDS011;57507;43.056;0.150;2024-02-21T07:04:00;0.40;;;0.30;;
70138;SDS011;57507;43.056;0.150;2024-02-21T07:06:26;0.20;;;0.20;;
70138;SDS011;57507;43.056;0.150;2024-02-21T07:08:52;0.20;;;0.20;;
70138;SDS011;57507;43.056;0.150;2024-02-21T07:11:18;1.15;;;0.40;;
70138;SDS011;57507;43.056;0.150;2024-02-21T07:13:44;0.30;;;0.30;;
70138;SDS011;57507;43.056;0.150;2024-02-21T07:16:10;0.28;;;0.28;;
70138;SDS011;57507;43.056;0.150;2024-02-21T07:18:36;0.32;;;0.20;;
70138;SDS011;57507;43.056;0.150;2024-02-21T07:21:02;0.20;;;0.20;;
70138;SDS011;57507;43.056;0.150;2024-02-21T07:23:28;0.65;;;0.30;;
70138;SDS011;57507;43.056;0.150;2024-02-21T07:25:54;0.30;;;0.20;;
70138;SDS011;57507;43.056;0.150;2024-02-21T07:28:20;0.35;;;0.17;;
70138;SDS011;57507;43.056;0.150;2024-02-21T07:30:46;0.60;;;0.40;;
70138;SDS011;57507;43.056;0.150;2024-02-21T07:33:13;0.47;;;0.30;;
70138;SDS011;57507;43.056;0.150;2024-02-21T07:35:39;0.47;;;0.30;;
70138;SDS011;57507;43.056;0.150;2024-02-21T07:38:07;0.63;;;0.35;;
70138;SDS011;57507;43.056;0.150;2024-02-21T07:40:37;1.58;;;0.47;;
70138;SDS011;57507;43.056;0.150;2024-02-21T07:43:04;0.77;;;0.43;;
70138;SDS011;57507;43.056;0.150;2024-02-21T07:45:30;1.67;;;0.88;;
70138;SDS011;57507;43.056;0.150;2024-02-21T07:47:56;0.55;;;0.45;;
70138;SDS011;57507;43.056;0.150;2024-02-21T07:50:22;0.80;;;0.50;;
70138;SDS011;57507;43.056;0.150;2024-02-21T07:52:48;0.82;;;0.60;;
70138;SDS011;57507;43.056;0.150;2024-02-21T07:55:14;0.77;;;0.55;;
70138;SDS011;57507;43.056;0.150;2024-02-21T07:57:40;0.45;;;0.35;;
70138;SDS011;57507;43.056;0.150;2024-02-21T08:00:06;1.55;;;0.70;;
70138;SDS011;57507;43.056;0.150;2024-02-21T08:02:40;0.75;;;0.40;;
70138;SDS011;57507;43.056;0.150;2024-02-21T08:05:07;0.95;;;0.43;;
70138;SDS011;57507;43.056;0.150;2024-02-21T08:07:33;0.55;;;0.40;;
70138;SDS011;57507;43.056;0.150;2024-02-21T08:09:59;1.55;;;0.57;;
70138;SDS011;57507;43.056;0.150;2024-02-21T08:12:25;0.70;;;0.35;;
70138;SDS011;57507;43.056;0.150;2024-02-21T08:14:52;0.85;;;0.50;;
70138;SDS011;57507;43.056;0.150;2024-02-21T08:17:18;3.13;;;0.50;;
70138;SDS011;57507;43.056;0.150;2024-02-21T08:19:44;0.30;;;0.30;;
70138;SDS011;57507;43.056;0.150;2024-02-21T08:22:10;0.60;;;0.40;;
70138;SDS011;57507;43.056;0.150;2024-02-21T08:24:36;1.13;;;0.30;;
70138;SDS011;57507;43.056;0.150;2024-02-21T08:27:03;0.50;;;0.45;;
70138;SDS011;57507;43.056;0.150;2024-02-21T08:29:29;0.60;;;0.30;;
70138;SDS011;57507;43.056;0.150;2024-02-21T08:31:55;0.85;;;0.40;;
70138;SDS011;57507;43.056;0.150;2024-02-21T08:34:21;0.40;;;0.38;;
70138;SDS011;57507;43.056;0.150;2024-02-21T08:36:47;0.55;;;0.30;;
70138;SDS011;57507;43.056;0.150;2024-02-21T08:39:13;0.70;;;0.20;;
70138;SDS011;57507;43.056;0.150;2024-02-21T08:41:42;0.60;;;0.40;;
70138;SDS011;57507;43.056;0.150;2024-02-21T08:44:08;1.20;;;0.30;;
70138;SDS011;57507;43.056;0.150;2024-02-21T08:46:34;0.30;;;0.30;;
70138;SDS011;57507;43.056;0.150;2024-02-21T08:49:03;0.22;;;0.17;;
70138;SDS011;57507;43.056;0.150;2024-02-21T08:51:29;0.65;;;0.40;;
70138;SDS011;57507;43.056;0.150;2024-02-21T08:53:55;0.10;;;0.10;;
70138;SDS011;57507;43.056;0.150;2024-02-21T08:56:21;1.35;;;0.20;;
70138;SDS011;57507;43.056;0.150;2024-02-21T08:58:47;0.43;;;0.30;;
70138;SDS011;57507;43.056;0.150;2024-02-21T09:01:13;0.55;;;0.30;;
70138;SDS011;57507;43.056;0.150;2024-02-21T09:03:40;0.68;;;0.40;;
70138;SDS011;57507;43.056;0.150;2024-02-21T09:06:06;0.60;;;0.20;;
70138;SDS011;57507;43.056;0.150;2024-02-21T09:08:32;0.30;;;0.30;;
70138;SDS011;57507;43.056;0.150;2024-02-21T09:10:59;0.20;;;0.20;;
70138;SDS011;57507;43.056;0.150;2024-02-21T09:13:28;0.30;;;0.30;;
70138;SDS011;57507;43.056;0.150;2024-02-21T09:15:55;0.88;;;0.30;;
70138;SDS011;57507;43.056;0.150;2024-02-21T09:18:21;0.20;;;0.20;;
70138;SDS011;57507;43.056;0.150;2024-02-21T09:20:47;0.45;;;0.20;;
70138;SDS011;57507;43.056;0.150;2024-02-21T09:23:13;0.47;;;0.40;;
70138;SDS011;57507;43.056;0.150;2024-02-21T09:25:39;0.20;;;0.20;;
70138;SDS011;57507;43.056;0.150;2024-02-21T09:28:05;0.22;;;0.20;;
70138;SDS011;57507;43.056;0.150;2024-02-21T09:30:31;2.50;;;1.13;;
70138;SDS011;57507;43.056;0.150;2024-02-21T09:32:58;1.40;;;0.90;;
70138;SDS011;57507;43.056;0.150;2024-02-21T09:35:26;2.60;;;1.25;;
70138;SDS011;57507;43.056;0.150;2024-02-21T09:37:52;1.98;;;1.00;;
70138;SDS011;57507;43.056;0.150;2024-02-21T09:40:18;2.15;;;0.80;;
70138;SDS011;57507;43.056;0.150;2024-02-21T09:42:45;1.42;;;1.08;;
70138;SDS011;57507;43.056;0.150;2024-02-21T09:45:20;1.60;;;0.90;;
70138;SDS011;57507;43.056;0.150;2024-02-21T09:48:06;2.05;;;0.55;;
70138;SDS011;57507;43.056;0.150;2024-02-21T09:50:38;0.65;;;0.50;;
70138;SDS011;57507;43.056;0.150;2024-02-21T09:53:08;1.02;;;0.57;;
70138;SDS011;57507;43.056;0.150;2024-02-21T09:55:35;0.73;;;0.38;;
70138;SDS011;57507;43.056;0.150;2024-02-21T09:58:05;0.65;;;0.38;;
70138;SDS011;57507;43.056;0.150;2024-02-21T10:00:31;0.88;;;0.40;;
70138;SDS011;57507;43.056;0.150;2024-02-21T10:02:58;1.00;;;0.50;;
70138;SDS011;57507;43.056;0.150;2024-02-21T10:05:24;1.15;;;0.50;;
70138;SDS011;57507;43.056;0.150;2024-02-21T10:07:50;0.68;;;0.30;;
70138;SDS011;57507;43.056;0.150;2024-02-21T10:10:17;0.70;;;0.32;;
70138;SDS011;57507;43.056;0.150;2024-02-21T10:12:49;0.45;;;0.30;;
70138;SDS011;57507;43.056;0.150;2024-02-21T10:15:19;2.38;;;0.30;;
70138;SDS011;57507;43.056;0.150;2024-02-21T10:17:46;0.30;;;0.22;;
70138;SDS011;57507;43.056;0.150;2024-02-21T10:20:12;0.57;;;0.22;;
70138;SDS011;57507;43.056;0.150;2024-02-21T10:22:40;0.98;;;0.30;;
70138;SDS011;57507;43.056;0.150;2024-02-21T10:25:09;0.68;;;0.28;;
70138;SDS011;57507;43.056;0.150;2024-02-21T10:27:38;0.60;;;0.30;;
70138;SDS011;57507;43.056;0.150;2024-02-21T10:30:05;3.70;;;0.50;;
70138;SDS011;57507;43.056;0.150;2024-02-21T10:32:31;0.63;;;0.40;;
70138;SDS011;57507;43.056;0.150;2024-02-21T10:35:01;0.50;;;0.35;;
70138;SDS011;57507;43.056;0.150;2024-02-21T10:37:29;0.52;;;0.20;;
70138;SDS011;57507;43.056;0.150;2024-02-21T10:39:55;0.70;;;0.20;;
70138;SDS011;57507;43.056;0.150;2024-02-21T10:42:22;0.52;;;0.20;;
70138;SDS011;57507;43.056;0.150;2024-02-21T10:44:50;0.30;;;0.20;;
70138;SDS011;57507;43.056;0.150;2024-02-21T10:47:17;0.17;;;0.17;;
70138;SDS011;57507;43.056;0.150;2024-02-21T10:49:46;0.32;;;0.10;;
70138;SDS011;57507;43.056;0.150;2024-02-21T10:54:48;0.40;;;0.38;;
70138;SDS011;57507;43.056;0.150;2024-02-21T10:57:16;0.22;;;0.20;;
70138;SDS011;57507;43.056;0.150;2024-02-21T10:59:44;0.38;;;0.20;;
70138;SDS011;57507;43.056;0.150;2024-02-21T11:02:10;0.17;;;0.10;;
70138;SDS011;57507;43.056;0.150;2024-02-21T11:04:37;0.10;;;0.10;;
70138;SDS011;57507;43.056;0.150;2024-02-21T11:07:04;0.55;;;0.30;;
70138;SDS011;57507;43.056;0.150;2024-02-21T11:09:31;0.43;;;0.20;;
70138;SDS011;57507;43.056;0.150;2024-02-21T11:11:57;0.20;;;0.20;;
70138;SDS011;57507;43.056;0.150;2024-02-21T11:14:25;0.30;;;0.20;;
70138;SDS011;57507;43.056;0.150;2024-02-21T11:16:51;0.65;;;0.20;;
70138;SDS011;57507;43.056;0.150;2024-02-21T11:19:21;1.05;;;0.20;;
70138;SDS011;57507;43.056;0.150;2024-02-21T11:21:48;0.80;;;0.20;;
70138;SDS011;57507;43.056;0.150;2024-02-21T11:24:25;0.30;;;0.28;;
70138;SDS011;57507;43.056;0.150;2024-02-21T11:26:52;0.30;;;0.20;;
70138;SDS011;57507;43.056;0.150;2024-02-21T11:29:22;1.52;;;0.20;;
70138;SDS011;57507;43.056;0.150;2024-02-21T11:31:49;0.35;;;0.30;;
70138;SDS011;57507;43.056;0.150;2024-02-21T11:34:17;0.35;;;0.20;;
70138;SDS011;57507;43.056;0.150;2024-02-21T11:36:50;1.60;;;0.10;;
70138;SDS011;57507;43.056;0.150;2024-02-21T11:39:23;0.30;;;0.30;;
70138;SDS011;57507;43.056;0.150;2024-02-21T11:42:02;0.38;;;0.30;;
70138;SDS011;57507;43.056;0.150;2024-02-21T11:44:29;0.52;;;0.10;;
70138;SDS011;57507;43.056;0.150;2024-02-21T11:46:55;0.40;;;0.20;;
70138;SDS011;57507;43.056;0.150;2024-02-21T11:49:21;0.45;;;0.20;;
70138;SDS011;57507;43.056;0.150;2024-02-21T11:51:47;0.10;;;0.10;;
70138;SDS011;57507;43.056;0.150;2024-02-21T11:54:13;0.43;;;0.20;;
70138;SDS011;57507;43.056;0.150;2024-02-21T11:56:43;0.52;;;0.40;;
70138;SDS011;57507;43.056;0.150;2024-02-21T11:59:09;0.68;;;0.25;;
70138;SDS011;57507;43.056;0.150;2024-02-21T12:01:35;0.20;;;0.20;;
70138;SDS011;57507;43.056;0.150;2024-02-21T12:04:01;0.20;;;0.20;;
70138;SDS011;57507;43.056;0.150;2024-02-21T12:06:28;0.20;;;0.20;;
70138;SDS011;57507;43.056;0.150;2024-02-21T12:08:57;0.50;;;0.20;;
70138;SDS011;57507;43.056;0.150;2024-02-21T12:11:23;1.15;;;0.47;;
70138;SDS011;57507;43.056;0.150;2024-02-21T12:13:59;0.57;;;0.20;;
70138;SDS011;57507;43.056;0.150;2024-02-21T12:16:26;0.10;;;0.10;;
70138;SDS011;57507;43.056;0.150;2024-02-21T12:18:54;0.17;;;0.13;;
70138;SDS011;57507;43.056;0.150;2024-02-21T12:21:24;0.57;;;0.30;;
70138;SDS011;57507;43.056;0.150;2024-02-21T12:23:53;0.40;;;0.20;;
70138;SDS011;57507;43.056;0.150;2024-02-21T12:26:19;0.68;;;0.17;;
70138;SDS011;57507;43.056;0.150;2024-02-21T12:28:45;0.35;;;0.20;;
70138;SDS011;57507;43.056;0.150;2024-02-21T12:31:11;0.22;;;0.22;;
70138;SDS011;57507;43.056;0.150;2024-02-21T12:33:37;0.20;;;0.15;;
70138;SDS011;57507;43.056;0.150;2024-02-21T12:36:03;0.35;;;0.20;;
70138;SDS011;57507;43.056;0.150;2024-02-21T12:38:29;1.35;;;0.20;;
70138;SDS011;57507;43.056;0.150;2024-02-21T12:40:55;0.47;;;0.30;;
70138;SDS011;57507;43.056;0.150;2024-02-21T12:43:25;1.80;;;0.20;;
70138;SDS011;57507;43.056;0.150;2024-02-21T12:45:51;0.30;;;0.20;;
70138;SDS011;57507;43.056;0.150;2024-02-21T12:48:17;1.10;;;0.20;;
70138;SDS011;57507;43.056;0.150;2024-02-21T12:50:50;0.85;;;0.20;;
70138;SDS011;57507;43.056;0.150;2024-02-21T12:53:17;0.20;;;0.20;;
70138;SDS011;57507;43.056;0.150;2024-02-21T12:55:44;0.20;;;0.20;;
70138;SDS011;57507;43.056;0.150;2024-02-21T12:58:10;0.40;;;0.22;;
70138;SDS011;57507;43.056;0.150;2024-02-21T13:00:36;0.20;;;0.20;;
70138;SDS011;57507;43.056;0.150;2024-02-21T13:03:03;0.85;;;0.20;;
70138;SDS011;57507;43.056;0.150;2024-02-21T13:05:29;0.40;;;0.10;;
70138;SDS011;57507;43.056;0.150;2024-02-21T13:07:57;0.30;;;0.30;;
70138;SDS011;57507;43.056;0.150;2024-02-21T13:10:23;0.57;;;0.40;;
70138;SDS011;57507;43.056;0.150;2024-02-21T13:12:49;0.40;;;0.20;;
70138;SDS011;57507;43.056;0.150;2024-02-21T13:15:15;0.40;;;0.25;;
70138;SDS011;57507;43.056;0.150;2024-02-21T13:17:43;0.40;;;0.40;;
70138;SDS011;57507;43.056;0.150;2024-02-21T13:20:09;0.80;;;0.20;;
70138;SDS011;57507;43.056;0.150;2024-02-21T13:22:35;0.30;;;0.30;;
70138;SDS011;57507;43.056;0.150;2024-02-21T13:25:02;0.70;;;0.30;;
70138;SDS011;57507;43.056;0.150;2024-02-21T13:27:28;0.43;;;0.22;;
70138;SDS011;57507;43.056;0.150;2024-02-21T13:29:54;0.80;;;0.30;;
70138;SDS011;57507;43.056;0.150;2024-02-21T13:32:20;3.25;;;1.10;;
70138;SDS011;57507;43.056;0.150;2024-02-21T13:34:46;1.88;;;0.73;;
70138;SDS011;57507;43.056;0.150;2024-02-21T13:37:12;0.70;;;0.68;;
70138;SDS011;57507;43.056;0.150;2024-02-21T13:39:39;0.43;;;0.30;;
70138;SDS011;57507;43.056;0.150;2024-02-21T13:42:06;1.08;;;0.35;;
70138;SDS011;57507;43.056;0.150;2024-02-21T13:44:32;0.63;;;0.30;;
70138;SDS011;57507;43.056;0.150;2024-02-21T13:46:59;0.45;;;0.30;;
70138;SDS011;57507;43.056;0.150;2024-02-21T13:49:25;0.32;;;0.20;;
70138;SDS011;57507;43.056;0.150;2024-02-21T13:51:51;0.43;;;0.30;;
70138;SDS011;57507;43.056;0.150;2024-02-21T13:54:17;0.50;;;0.30;;
70138;SDS011;57507;43.056;0.150;2024-02-21T13:56:44;0.30;;;0.28;;
70138;SDS011;57507;43.056;0.150;2024-02-21T13:59:13;0.65;;;0.30;;
70138;SDS011;57507;43.056;0.150;2024-02-21T14:01:39;0.30;;;0.10;;
70138;SDS011;57507;43.056;0.150;2024-02-21T14:04:05;0.20;;;0.20;;
70138;SDS011;57507;43.056;0.150;2024-02-21T14:06:32;0.38;;;0.20;;
70138;SDS011;57507;43.056;0.150;2024-02-21T14:08:58;0.93;;;0.30;;
70138;SDS011;57507;43.056;0.150;2024-02-21T14:11:24;0.43;;;0.30;;
70138;SDS011;57507;43.056;0.150;2024-02-21T14:13:50;0.30;;;0.20;;
70138;SDS011;57507;43.056;0.150;2024-02-21T14:16:16;3.20;;;0.38;;
70138;SDS011;57507;43.056;0.150;2024-02-21T14:18:42;0.30;;;0.20;;
70138;SDS011;57507;43.056;0.150;2024-02-21T14:21:08;0.60;;;0.30;;
70138;SDS011;57507;43.056;0.150;2024-02-21T14:23:37;1.15;;;0.50;;
70138;SDS011;57507;43.056;0.150;2024-02-21T14:26:03;0.45;;;0.30;;
70138;SDS011;57507;43.056;0.150;2024-02-21T14:28:29;1.00;;;0.30;;
70138;SDS011;57507;43.056;0.150;2024-02-21T14:30:56;1.58;;;0.60;;
70138;SDS011;57507;43.056;0.150;2024-02-21T14:33:25;0.95;;;0.30;;
70138;SDS011;57507;43.056;0.150;2024-02-21T14:35:51;1.23;;;0.43;;
70138;SDS011;57507;43.056;0.150;2024-02-21T14:38:18;0.77;;;0.40;;
70138;SDS011;57507;43.056;0.150;2024-02-21T14:40:44;0.60;;;0.40;;
70138;SDS011;57507;43.056;0.150;2024-02-21T14:43:10;0.30;;;0.25;;
70138;SDS011;57507;43.056;0.150;2024-02-21T14:45:36;0.30;;;0.30;;
70138;SDS011;57507;43.056;0.150;2024-02-21T14:48:05;0.43;;;0.30;;